sensor_id;sensor_type;location;lat;lon;timestamp;pressure;altitude;pressure_sealevel;temperature
78859;BMP280;68210;52.032;4.634;2023-04-22T00:01:28;100751.06;;;8.74
78859;BMP280;68210;52.032;4.634;2023-04-22T00:03:29;100750.28;;;8.74
78859;BMP280;68210;52.032;4.634;2023-04-22T00:05:30;100754.19;;;8.76
78859;BMP280;68210;52.032;4.634;2023-04-22T00:07:30;100753.88;;;8.66
78859;BMP280;68210;52.032;4.634;2023-04-22T00:09:31;100754.31;;;8.68
78859;BMP280;68210;52.032;4.634;2023-04-22T00:11:31;100760.84;;;8.67
78859;BMP280;68210;52.032;4.634;2023-04-22T00:13:31;100757.56;;;8.73
78859;BMP280;68210;52.032;4.634;2023-04-22T00:15:32;100764.22;;;8.76
78859;BMP280;68210;52.032;4.634;2023-04-22T00:17:32;100751.50;;;8.76
78859;BMP280;68210;52.032;4.634;2023-04-22T00:19:33;100761.88;;;8.74
78859;BMP280;68210;52.032;4.634;2023-04-22T00:21:33;100763.34;;;8.72
78859;BMP280;68210;52.032;4.634;2023-04-22T00:23:34;100757.13;;;8.59
78859;BMP280;68210;52.032;4.634;2023-04-22T00:25:34;100761.09;;;8.50
78859;BMP280;68210;52.032;4.634;2023-04-22T00:27:35;100764.56;;;8.50
78859;BMP280;68210;52.032;4.634;2023-04-22T00:29:35;100761.19;;;8.53
78859;BMP280;68210;52.032;4.634;2023-04-22T00:31:35;100759.72;;;8.68
78859;BMP280;68210;52.032;4.634;2023-04-22T00:33:36;100754.66;;;8.66
78859;BMP280;68210;52.032;4.634;2023-04-22T00:35:36;100755.47;;;8.55
78859;BMP280;68210;52.032;4.634;2023-04-22T00:37:37;100755.53;;;8.47
78859;BMP280;68210;52.032;4.634;2023-04-22T00:39:37;100754.19;;;8.29
78859;BMP280;68210;52.032;4.634;2023-04-22T00:41:38;100756.88;;;8.29
78859;BMP280;68210;52.032;4.634;2023-04-22T00:43:39;100750.69;;;8.40
78859;BMP280;68210;52.032;4.634;2023-04-22T00:45:41;100756.78;;;8.37
78859;BMP280;68210;52.032;4.634;2023-04-22T00:47:46;100751.69;;;8.36
78859;BMP280;68210;52.032;4.634;2023-04-22T00:49:48;100755.53;;;8.47
78859;BMP280;68210;52.032;4.634;2023-04-22T00:51:48;100761.44;;;8.60
78859;BMP280;68210;52.032;4.634;2023-04-22T00:53:49;100750.59;;;8.84
78859;BMP280;68210;52.032;4.634;2023-04-22T00:55:50;100769.75;;;8.67
78859;BMP280;68210;52.032;4.634;2023-04-22T00:57:51;100760.28;;;8.49
78859;BMP280;68210;52.032;4.634;2023-04-22T00:59:53;100770.19;;;8.34
78859;BMP280;68210;52.032;4.634;2023-04-22T01:01:54;100775.13;;;8.44
78859;BMP280;68210;52.032;4.634;2023-04-22T01:03:55;100777.53;;;8.13
78859;BMP280;68210;52.032;4.634;2023-04-22T01:05:56;100781.75;;;7.90
78859;BMP280;68210;52.032;4.634;2023-04-22T01:07:57;100773.97;;;8.01
78859;BMP280;68210;52.032;4.634;2023-04-22T01:09:58;100764.50;;;8.15
78859;BMP280;68210;52.032;4.634;2023-04-22T01:11:59;100770.50;;;8.20
78859;BMP280;68210;52.032;4.634;2023-04-22T01:14:01;100770.81;;;8.19
78859;BMP280;68210;52.032;4.634;2023-04-22T01:16:02;100772.41;;;8.20
78859;BMP280;68210;52.032;4.634;2023-04-22T01:18:05;100754.41;;;8.04
78859;BMP280;68210;52.032;4.634;2023-04-22T01:20:06;100758.38;;;8.06
78859;BMP280;68210;52.032;4.634;2023-04-22T01:22:11;100754.16;;;8.17
78859;BMP280;68210;52.032;4.634;2023-04-22T01:24:12;100747.88;;;8.25
78859;BMP280;68210;52.032;4.634;2023-04-22T01:26:12;100744.94;;;8.30
78859;BMP280;68210;52.032;4.634;2023-04-22T01:28:14;100752.69;;;8.08
78859;BMP280;68210;52.032;4.634;2023-04-22T01:30:15;100765.22;;;8.04
78859;BMP280;68210;52.032;4.634;2023-04-22T01:32:16;100761.50;;;7.96
78859;BMP280;68210;52.032;4.634;2023-04-22T01:34:16;100758.31;;;7.83
78859;BMP280;68210;52.032;4.634;2023-04-22T01:36:17;100762.53;;;7.72
78859;BMP280;68210;52.032;4.634;2023-04-22T01:38:17;100762.09;;;7.70
78859;BMP280;68210;52.032;4.634;2023-04-22T01:40:19;100763.47;;;7.87
78859;BMP280;68210;52.032;4.634;2023-04-22T01:42:21;100760.72;;;7.64
78859;BMP280;68210;52.032;4.634;2023-04-22T01:44:22;100756.75;;;7.61
78859;BMP280;68210;52.032;4.634;2023-04-22T01:46:22;100765.47;;;7.79
78859;BMP280;68210;52.032;4.634;2023-04-22T01:48:23;100759.47;;;7.61
78859;BMP280;68210;52.032;4.634;2023-04-22T01:50:23;100746.28;;;7.60
78859;BMP280;68210;52.032;4.634;2023-04-22T01:52:26;100754.97;;;7.65
78859;BMP280;68210;52.032;4.634;2023-04-22T01:54:26;100749.94;;;7.64
78859;BMP280;68210;52.032;4.634;2023-04-22T01:56:27;100761.13;;;7.54
78859;BMP280;68210;52.032;4.634;2023-04-22T01:58:28;100760.50;;;7.69
78859;BMP280;68210;52.032;4.634;2023-04-22T02:00:29;100759.88;;;7.84
78859;BMP280;68210;52.032;4.634;2023-04-22T02:02:29;100759.19;;;7.75
78859;BMP280;68210;52.032;4.634;2023-04-22T02:04:30;100756.69;;;7.70
78859;BMP280;68210;52.032;4.634;2023-04-22T02:06:30;100757.09;;;7.60
78859;BMP280;68210;52.032;4.634;2023-04-22T02:08:31;100762.38;;;7.57
78859;BMP280;68210;52.032;4.634;2023-04-22T02:10:31;100764.94;;;7.53
78859;BMP280;68210;52.032;4.634;2023-04-22T02:12:32;100765.19;;;7.60
78859;BMP280;68210;52.032;4.634;2023-04-22T02:14:32;100766.97;;;7.56
78859;BMP280;68210;52.032;4.634;2023-04-22T02:16:33;100769.88;;;7.51
78859;BMP280;68210;52.032;4.634;2023-04-22T02:18:33;100769.13;;;7.62
78859;BMP280;68210;52.032;4.634;2023-04-22T02:20:34;100774.03;;;7.81
78859;BMP280;68210;52.032;4.634;2023-04-22T02:22:34;100780.34;;;7.85
78859;BMP280;68210;52.032;4.634;2023-04-22T02:24:35;100763.75;;;7.94
78859;BMP280;68210;52.032;4.634;2023-04-22T02:26:36;100757.78;;;8.01
78859;BMP280;68210;52.032;4.634;2023-04-22T02:28:36;100757.97;;;7.84
78859;BMP280;68210;52.032;4.634;2023-04-22T02:30:36;100761.25;;;7.89
78859;BMP280;68210;52.032;4.634;2023-04-22T02:32:37;100766.53;;;7.86
78859;BMP280;68210;52.032;4.634;2023-04-22T02:34:39;100765.75;;;7.86
78859;BMP280;68210;52.032;4.634;2023-04-22T02:36:39;100763.38;;;7.84
78859;BMP280;68210;52.032;4.634;2023-04-22T02:38:40;100758.81;;;7.96
78859;BMP280;68210;52.032;4.634;2023-04-22T02:40:40;100758.09;;;7.87
78859;BMP280;68210;52.032;4.634;2023-04-22T02:42:40;100751.53;;;7.77
78859;BMP280;68210;52.032;4.634;2023-04-22T02:44:41;100747.44;;;7.59
78859;BMP280;68210;52.032;4.634;2023-04-22T02:46:41;100742.34;;;7.57
78859;BMP280;68210;52.032;4.634;2023-04-22T02:48:42;100743.56;;;7.48
78859;BMP280;68210;52.032;4.634;2023-04-22T02:50:42;100735.38;;;7.36
78859;BMP280;68210;52.032;4.634;2023-04-22T02:52:43;100729.28;;;7.48
78859;BMP280;68210;52.032;4.634;2023-04-22T02:54:43;100732.91;;;7.31
78859;BMP280;68210;52.032;4.634;2023-04-22T02:56:43;100725.03;;;7.27
78859;BMP280;68210;52.032;4.634;2023-04-22T02:58:45;100721.50;;;7.26
78859;BMP280;68210;52.032;4.634;2023-04-22T03:00:45;100724.56;;;7.25
78859;BMP280;68210;52.032;4.634;2023-04-22T03:02:46;100716.06;;;7.34
78859;BMP280;68210;52.032;4.634;2023-04-22T03:04:47;100719.16;;;7.25
78859;BMP280;68210;52.032;4.634;2023-04-22T03:06:48;100718.84;;;7.06
78859;BMP280;68210;52.032;4.634;2023-04-22T03:08:48;100713.38;;;6.94
78859;BMP280;68210;52.032;4.634;2023-04-22T03:10:49;100720.81;;;6.97
78859;BMP280;68210;52.032;4.634;2023-04-22T03:12:49;100722.75;;;6.88
78859;BMP280;68210;52.032;4.634;2023-04-22T03:14:50;100718.69;;;6.82
78859;BMP280;68210;52.032;4.634;2023-04-22T03:16:50;100713.22;;;6.91
78859;BMP280;68210;52.032;4.634;2023-04-22T03:18:50;100709.69;;;6.98
78859;BMP280;68210;52.032;4.634;2023-04-22T03:20:51;100704.50;;;7.14
78859;BMP280;68210;52.032;4.634;2023-04-22T03:22:51;100706.00;;;7.23
78859;BMP280;68210;52.032;4.634;2023-04-22T03:24:52;100705.41;;;7.18
78859;BMP280;68210;52.032;4.634;2023-04-22T03:26:53;100712.00;;;7.08
78859;BMP280;68210;52.032;4.634;2023-04-22T03:28:54;100710.16;;;7.00
78859;BMP280;68210;52.032;4.634;2023-04-22T03:30:54;100706.88;;;6.95
78859;BMP280;68210;52.032;4.634;2023-04-22T03:32:57;100697.06;;;7.31
78859;BMP280;68210;52.032;4.634;2023-04-22T03:34:57;100691.22;;;7.29
78859;BMP280;68210;52.032;4.634;2023-04-22T03:36:58;100691.75;;;7.23
78859;BMP280;68210;52.032;4.634;2023-04-22T03:38:58;100692.16;;;7.13
78859;BMP280;68210;52.032;4.634;2023-04-22T03:40:58;100688.44;;;7.17
78859;BMP280;68210;52.032;4.634;2023-04-22T03:42:59;100692.16;;;7.13
78859;BMP280;68210;52.032;4.634;2023-04-22T03:44:59;100685.75;;;7.17
78859;BMP280;68210;52.032;4.634;2023-04-22T03:47:00;100690.09;;;7.30
78859;BMP280;68210;52.032;4.634;2023-04-22T03:49:00;100686.06;;;7.36
78859;BMP280;68210;52.032;4.634;2023-04-22T03:51:01;100682.78;;;7.30
78859;BMP280;68210;52.032;4.634;2023-04-22T03:53:04;100675.63;;;7.34
78859;BMP280;68210;52.032;4.634;2023-04-22T03:55:04;100682.59;;;7.35
78859;BMP280;68210;52.032;4.634;2023-04-22T03:57:05;100675.41;;;7.39
78859;BMP280;68210;52.032;4.634;2023-04-22T03:59:06;100664.28;;;7.41
78859;BMP280;68210;52.032;4.634;2023-04-22T04:01:06;100670.16;;;7.43
78859;BMP280;68210;52.032;4.634;2023-04-22T04:03:07;100668.44;;;7.38
78859;BMP280;68210;52.032;4.634;2023-04-22T04:05:07;100664.56;;;7.48
78859;BMP280;68210;52.032;4.634;2023-04-22T04:07:10;100665.34;;;7.48
78859;BMP280;68210;52.032;4.634;2023-04-22T04:09:10;100658.63;;;7.54
78859;BMP280;68210;52.032;4.634;2023-04-22T04:11:11;100659.75;;;7.53
78859;BMP280;68210;52.032;4.634;2023-04-22T04:13:11;100652.97;;;7.47
78859;BMP280;68210;52.032;4.634;2023-04-22T04:15:12;100644.72;;;7.64
78859;BMP280;68210;52.032;4.634;2023-04-22T04:17:12;100654.38;;;7.65
78859;BMP280;68210;52.032;4.634;2023-04-22T04:19:14;100649.59;;;7.50
78859;BMP280;68210;52.032;4.634;2023-04-22T04:21:14;100655.66;;;7.47
78859;BMP280;68210;52.032;4.634;2023-04-22T04:23:15;100650.41;;;7.51
78859;BMP280;68210;52.032;4.634;2023-04-22T04:25:15;100651.56;;;7.61
78859;BMP280;68210;52.032;4.634;2023-04-22T04:27:17;100653.59;;;7.64
78859;BMP280;68210;52.032;4.634;2023-04-22T04:29:17;100649.84;;;7.57
78859;BMP280;68210;52.032;4.634;2023-04-22T04:31:19;100647.34;;;7.52
78859;BMP280;68210;52.032;4.634;2023-04-22T04:33:20;100643.66;;;7.57
78859;BMP280;68210;52.032;4.634;2023-04-22T04:35:20;100644.72;;;7.64
78859;BMP280;68210;52.032;4.634;2023-04-22T04:37:21;100639.53;;;7.71
78859;BMP280;68210;52.032;4.634;2023-04-22T04:39:22;100647.41;;;7.76
78859;BMP280;68210;52.032;4.634;2023-04-22T04:41:23;100641.81;;;7.92
78859;BMP280;68210;52.032;4.634;2023-04-22T04:43:25;100646.53;;;7.95
78859;BMP280;68210;52.032;4.634;2023-04-22T04:45:26;100640.47;;;7.87
78859;BMP280;68210;52.032;4.634;2023-04-22T04:47:27;100638.66;;;7.79
78859;BMP280;68210;52.032;4.634;2023-04-22T04:49:27;100640.94;;;7.88
78859;BMP280;68210;52.032;4.634;2023-04-22T04:51:29;100639.59;;;7.94
78859;BMP280;68210;52.032;4.634;2023-04-22T04:53:32;100641.31;;;8.11
78859;BMP280;68210;52.032;4.634;2023-04-22T04:55:33;100634.44;;;8.01
78859;BMP280;68210;52.032;4.634;2023-04-22T04:57:33;100637.09;;;7.89
78859;BMP280;68210;52.032;4.634;2023-04-22T04:59:34;100640.00;;;7.85
78859;BMP280;68210;52.032;4.634;2023-04-22T05:01:34;100634.97;;;7.83
78859;BMP280;68210;52.032;4.634;2023-04-22T05:03:35;100631.81;;;7.93
78859;BMP280;68210;52.032;4.634;2023-04-22T05:05:35;100625.22;;;8.14
78859;BMP280;68210;52.032;4.634;2023-04-22T05:07:35;100615.91;;;8.23
78859;BMP280;68210;52.032;4.634;2023-04-22T05:09:36;100623.09;;;8.19
78859;BMP280;68210;52.032;4.634;2023-04-22T05:11:37;100619.59;;;8.31
78859;BMP280;68210;52.032;4.634;2023-04-22T05:13:37;100621.63;;;8.34
78859;BMP280;68210;52.032;4.634;2023-04-22T05:15:37;100632.97;;;8.27
78859;BMP280;68210;52.032;4.634;2023-04-22T05:17:38;100624.56;;;8.29
78859;BMP280;68210;52.032;4.634;2023-04-22T05:19:39;100624.09;;;8.27
78859;BMP280;68210;52.032;4.634;2023-04-22T05:21:39;100628.50;;;8.31
78859;BMP280;68210;52.032;4.634;2023-04-22T05:23:40;100623.78;;;8.28
78859;BMP280;68210;52.032;4.634;2023-04-22T05:25:40;100641.88;;;8.28
78859;BMP280;68210;52.032;4.634;2023-04-22T05:27:41;100629.72;;;8.34
78859;BMP280;68210;52.032;4.634;2023-04-22T05:29:41;100632.84;;;8.36
78859;BMP280;68210;52.032;4.634;2023-04-22T05:31:41;100636.91;;;8.30
78859;BMP280;68210;52.032;4.634;2023-04-22T05:33:42;100656.06;;;8.37
78859;BMP280;68210;52.032;4.634;2023-04-22T05:35:42;100649.31;;;8.43
78859;BMP280;68210;52.032;4.634;2023-04-22T05:37:43;100652.44;;;8.33
78859;BMP280;68210;52.032;4.634;2023-04-22T05:39:43;100651.91;;;8.39
78859;BMP280;68210;52.032;4.634;2023-04-22T05:41:43;100648.50;;;8.54
78859;BMP280;68210;52.032;4.634;2023-04-22T05:43:44;100644.81;;;8.35
78859;BMP280;68210;52.032;4.634;2023-04-22T05:45:44;100641.19;;;8.43
78859;BMP280;68210;52.032;4.634;2023-04-22T05:47:45;100650.53;;;8.45
78859;BMP280;68210;52.032;4.634;2023-04-22T05:49:45;100652.84;;;8.70
78859;BMP280;68210;52.032;4.634;2023-04-22T05:51:45;100647.94;;;8.60
78859;BMP280;68210;52.032;4.634;2023-04-22T05:53:46;100652.22;;;8.61
78859;BMP280;68210;52.032;4.634;2023-04-22T05:55:46;100644.47;;;8.36
78859;BMP280;68210;52.032;4.634;2023-04-22T05:57:47;100646.34;;;8.59
78859;BMP280;68210;52.032;4.634;2023-04-22T05:59:47;100638.50;;;8.43
78859;BMP280;68210;52.032;4.634;2023-04-22T06:01:47;100632.97;;;8.51
78859;BMP280;68210;52.032;4.634;2023-04-22T06:03:48;100631.19;;;8.55
78859;BMP280;68210;52.032;4.634;2023-04-22T06:05:48;100627.88;;;8.61
78859;BMP280;68210;52.032;4.634;2023-04-22T06:07:49;100614.00;;;8.75
78859;BMP280;68210;52.032;4.634;2023-04-22T06:09:49;100617.81;;;8.85
78859;BMP280;68210;52.032;4.634;2023-04-22T06:11:50;100624.63;;;8.95
78859;BMP280;68210;52.032;4.634;2023-04-22T06:13:50;100626.69;;;8.98
78859;BMP280;68210;52.032;4.634;2023-04-22T06:15:51;100631.81;;;9.14
78859;BMP280;68210;52.032;4.634;2023-04-22T06:17:52;100617.59;;;9.17
78859;BMP280;68210;52.032;4.634;2023-04-22T06:19:52;100612.88;;;9.14
78859;BMP280;68210;52.032;4.634;2023-04-22T06:21:53;100612.50;;;9.16
78859;BMP280;68210;52.032;4.634;2023-04-22T06:23:53;100610.78;;;9.23
78859;BMP280;68210;52.032;4.634;2023-04-22T06:25:53;100606.78;;;9.17
78859;BMP280;68210;52.032;4.634;2023-04-22T06:27:54;100612.78;;;9.38
78859;BMP280;68210;52.032;4.634;2023-04-22T06:29:54;100605.44;;;9.54
78859;BMP280;68210;52.032;4.634;2023-04-22T06:31:55;100617.00;;;9.66
78859;BMP280;68210;52.032;4.634;2023-04-22T06:33:55;100612.25;;;9.48
78859;BMP280;68210;52.032;4.634;2023-04-22T06:35:56;100605.44;;;9.39
78859;BMP280;68210;52.032;4.634;2023-04-22T06:37:56;100596.34;;;9.31
78859;BMP280;68210;52.032;4.634;2023-04-22T06:39:56;100603.81;;;9.65
78859;BMP280;68210;52.032;4.634;2023-04-22T06:41:57;100595.50;;;9.58
78859;BMP280;68210;52.032;4.634;2023-04-22T06:43:58;100600.66;;;9.63
78859;BMP280;68210;52.032;4.634;2023-04-22T06:45:58;100595.53;;;9.88
78859;BMP280;68210;52.032;4.634;2023-04-22T06:47:59;100601.41;;;9.90
78859;BMP280;68210;52.032;4.634;2023-04-22T06:50:00;100598.97;;;10.01
78859;BMP280;68210;52.032;4.634;2023-04-22T06:52:01;100599.47;;;9.91
78859;BMP280;68210;52.032;4.634;2023-04-22T06:54:02;100599.56;;;10.25
78859;BMP280;68210;52.032;4.634;2023-04-22T06:56:03;100594.66;;;10.64
78859;BMP280;68210;52.032;4.634;2023-04-22T06:58:03;100596.75;;;10.55
78859;BMP280;68210;52.032;4.634;2023-04-22T07:00:05;100590.50;;;10.51
78859;BMP280;68210;52.032;4.634;2023-04-22T07:02:08;100582.25;;;10.82
78859;BMP280;68210;52.032;4.634;2023-04-22T07:04:08;100578.41;;;10.83
78859;BMP280;68210;52.032;4.634;2023-04-22T07:06:09;100580.53;;;10.92
78859;BMP280;68210;52.032;4.634;2023-04-22T07:08:09;100578.25;;;11.13
78859;BMP280;68210;52.032;4.634;2023-04-22T07:10:11;100589.94;;;10.98
78859;BMP280;68210;52.032;4.634;2023-04-22T07:12:12;100592.09;;;11.27
78859;BMP280;68210;52.032;4.634;2023-04-22T07:14:13;100588.09;;;11.21
78859;BMP280;68210;52.032;4.634;2023-04-22T07:16:13;100587.44;;;11.27
78859;BMP280;68210;52.032;4.634;2023-04-22T07:18:14;100591.97;;;10.83
78859;BMP280;68210;52.032;4.634;2023-04-22T07:20:14;100583.03;;;11.01
78859;BMP280;68210;52.032;4.634;2023-04-22T07:22:14;100584.41;;;11.10
78859;BMP280;68210;52.032;4.634;2023-04-22T07:24:15;100589.38;;;11.27
78859;BMP280;68210;52.032;4.634;2023-04-22T07:26:15;100584.81;;;11.50
78859;BMP280;68210;52.032;4.634;2023-04-22T07:28:16;100582.69;;;11.84
78859;BMP280;68210;52.032;4.634;2023-04-22T07:30:16;100583.84;;;11.83
78859;BMP280;68210;52.032;4.634;2023-04-22T07:32:16;100569.28;;;11.94
78859;BMP280;68210;52.032;4.634;2023-04-22T07:34:17;100583.97;;;11.90
78859;BMP280;68210;52.032;4.634;2023-04-22T07:36:17;100584.03;;;12.19
78859;BMP280;68210;52.032;4.634;2023-04-22T07:38:18;100588.81;;;12.25
78859;BMP280;68210;52.032;4.634;2023-04-22T07:40:18;100584.75;;;12.38
78859;BMP280;68210;52.032;4.634;2023-04-22T07:42:18;100587.44;;;12.64
78859;BMP280;68210;52.032;4.634;2023-04-22T07:44:19;100587.13;;;12.69
78859;BMP280;68210;52.032;4.634;2023-04-22T07:46:20;100581.38;;;13.35
78859;BMP280;68210;52.032;4.634;2023-04-22T07:48:21;100577.41;;;13.65
78859;BMP280;68210;52.032;4.634;2023-04-22T07:50:22;100577.00;;;13.63
78859;BMP280;68210;52.032;4.634;2023-04-22T07:52:22;100576.66;;;13.68
78859;BMP280;68210;52.032;4.634;2023-04-22T07:54:23;100575.22;;;14.27
78859;BMP280;68210;52.032;4.634;2023-04-22T07:56:23;100570.34;;;14.00
78859;BMP280;68210;52.032;4.634;2023-04-22T07:58:23;100564.81;;;15.13
78859;BMP280;68210;52.032;4.634;2023-04-22T08:00:24;100561.00;;;15.49
78859;BMP280;68210;52.032;4.634;2023-04-22T08:02:24;100554.53;;;14.19
78859;BMP280;68210;52.032;4.634;2023-04-22T08:04:25;100555.13;;;14.52
78859;BMP280;68210;52.032;4.634;2023-04-22T08:06:25;100555.97;;;15.68
78859;BMP280;68210;52.032;4.634;2023-04-22T08:08:27;100545.44;;;16.11
78859;BMP280;68210;52.032;4.634;2023-04-22T08:10:27;100522.00;;;16.17
78859;BMP280;68210;52.032;4.634;2023-04-22T08:12:27;100515.78;;;16.13
78859;BMP280;68210;52.032;4.634;2023-04-22T08:14:28;100509.47;;;16.26
78859;BMP280;68210;52.032;4.634;2023-04-22T08:16:28;100520.41;;;15.88
78859;BMP280;68210;52.032;4.634;2023-04-22T08:18:29;100525.06;;;16.46
78859;BMP280;68210;52.032;4.634;2023-04-22T08:20:29;100527.47;;;16.24
78859;BMP280;68210;52.032;4.634;2023-04-22T08:22:29;100522.69;;;16.55
78859;BMP280;68210;52.032;4.634;2023-04-22T08:24:31;100530.91;;;16.62
78859;BMP280;68210;52.032;4.634;2023-04-22T08:26:31;100538.03;;;15.84
78859;BMP280;68210;52.032;4.634;2023-04-22T08:28:32;100537.91;;;15.19
78859;BMP280;68210;52.032;4.634;2023-04-22T08:30:33;100536.03;;;15.64
78859;BMP280;68210;52.032;4.634;2023-04-22T08:32:34;100543.09;;;15.82
78859;BMP280;68210;52.032;4.634;2023-04-22T08:34:34;100532.91;;;15.55
78859;BMP280;68210;52.032;4.634;2023-04-22T08:36:34;100539.94;;;15.70
78859;BMP280;68210;52.032;4.634;2023-04-22T08:38:36;100536.38;;;15.31
78859;BMP280;68210;52.032;4.634;2023-04-22T08:40:40;100533.69;;;15.73
78859;BMP280;68210;52.032;4.634;2023-04-22T08:42:42;100533.31;;;15.91
78859;BMP280;68210;52.032;4.634;2023-04-22T08:44:44;100530.59;;;15.88
78859;BMP280;68210;52.032;4.634;2023-04-22T08:46:44;100515.34;;;15.59
78859;BMP280;68210;52.032;4.634;2023-04-22T08:48:47;100514.91;;;16.43
78859;BMP280;68210;52.032;4.634;2023-04-22T08:50:48;100515.97;;;16.77
78859;BMP280;68210;52.032;4.634;2023-04-22T08:52:49;100508.59;;;16.67
78859;BMP280;68210;52.032;4.634;2023-04-22T08:54:50;100509.94;;;17.16
78859;BMP280;68210;52.032;4.634;2023-04-22T08:56:52;100507.00;;;17.51
78859;BMP280;68210;52.032;4.634;2023-04-22T08:58:53;100497.69;;;16.53
78859;BMP280;68210;52.032;4.634;2023-04-22T09:00:54;100486.84;;;17.21
78859;BMP280;68210;52.032;4.634;2023-04-22T09:02:56;100485.72;;;17.08
78859;BMP280;68210;52.032;4.634;2023-04-22T09:05:00;100474.94;;;16.73
78859;BMP280;68210;52.032;4.634;2023-04-22T09:07:01;100475.38;;;16.58
78859;BMP280;68210;52.032;4.634;2023-04-22T09:09:02;100484.44;;;16.38
78859;BMP280;68210;52.032;4.634;2023-04-22T09:11:03;100478.84;;;16.69
78859;BMP280;68210;52.032;4.634;2023-04-22T09:13:06;100471.69;;;16.96
78859;BMP280;68210;52.032;4.634;2023-04-22T09:15:07;100468.84;;;16.08
78859;BMP280;68210;52.032;4.634;2023-04-22T09:17:08;100463.22;;;16.66
78859;BMP280;68210;52.032;4.634;2023-04-22T09:19:13;100446.06;;;16.62
78859;BMP280;68210;52.032;4.634;2023-04-22T09:21:13;100437.56;;;16.33
78859;BMP280;68210;52.032;4.634;2023-04-22T09:23:14;100436.03;;;16.11
78859;BMP280;68210;52.032;4.634;2023-04-22T09:27:16;100431.38;;;16.08
78859;BMP280;68210;52.032;4.634;2023-04-22T09:29:17;100429.78;;;16.21
78859;BMP280;68210;52.032;4.634;2023-04-22T09:31:20;100433.72;;;16.16
78859;BMP280;68210;52.032;4.634;2023-04-22T09:33:24;100440.72;;;16.17
78859;BMP280;68210;52.032;4.634;2023-04-22T09:35:29;100446.22;;;16.14
78859;BMP280;68210;52.032;4.634;2023-04-22T09:37:29;100454.81;;;16.12
78859;BMP280;68210;52.032;4.634;2023-04-22T09:39:30;100461.84;;;16.17
78859;BMP280;68210;52.032;4.634;2023-04-22T09:41:35;100465.72;;;16.23
78859;BMP280;68210;52.032;4.634;2023-04-22T09:43:36;100461.84;;;16.13
78859;BMP280;68210;52.032;4.634;2023-04-22T09:45:39;100471.97;;;16.30
78859;BMP280;68210;52.032;4.634;2023-04-22T09:47:40;100484.03;;;16.43
78859;BMP280;68210;52.032;4.634;2023-04-22T09:49:47;100481.22;;;16.60
78859;BMP280;68210;52.032;4.634;2023-04-22T09:51:54;100474.22;;;16.59
78859;BMP280;68210;52.032;4.634;2023-04-22T09:53:57;100482.09;;;16.43
78859;BMP280;68210;52.032;4.634;2023-04-22T09:55:57;100495.81;;;15.78
78859;BMP280;68210;52.032;4.634;2023-04-22T09:58:08;100488.78;;;16.15
78859;BMP280;68210;52.032;4.634;2023-04-22T10:00:11;100505.97;;;16.12
78859;BMP280;68210;52.032;4.634;2023-04-22T10:02:13;100511.06;;;16.13
78859;BMP280;68210;52.032;4.634;2023-04-22T10:04:14;100505.47;;;16.58
78859;BMP280;68210;52.032;4.634;2023-04-22T10:06:15;100506.25;;;16.62
78859;BMP280;68210;52.032;4.634;2023-04-22T10:08:16;100503.13;;;16.67
78859;BMP280;68210;52.032;4.634;2023-04-22T10:10:16;100498.72;;;16.87
78859;BMP280;68210;52.032;4.634;2023-04-22T10:12:17;100495.53;;;17.02
78859;BMP280;68210;52.032;4.634;2023-04-22T10:14:17;100489.63;;;17.10
78859;BMP280;68210;52.032;4.634;2023-04-22T10:16:19;100484.50;;;17.16
78859;BMP280;68210;52.032;4.634;2023-04-22T10:18:23;100483.31;;;17.20
78859;BMP280;68210;52.032;4.634;2023-04-22T10:20:26;100488.09;;;17.02
78859;BMP280;68210;52.032;4.634;2023-04-22T10:22:28;100490.34;;;17.21
78859;BMP280;68210;52.032;4.634;2023-04-22T10:24:34;100484.97;;;17.01
78859;BMP280;68210;52.032;4.634;2023-04-22T10:26:42;100488.16;;;16.85
78859;BMP280;68210;52.032;4.634;2023-04-22T10:28:43;100484.31;;;16.69
78859;BMP280;68210;52.032;4.634;2023-04-22T10:30:43;100481.25;;;16.57
78859;BMP280;68210;52.032;4.634;2023-04-22T10:32:43;100497.72;;;16.40
78859;BMP280;68210;52.032;4.634;2023-04-22T10:34:47;100506.25;;;16.66
78859;BMP280;68210;52.032;4.634;2023-04-22T10:40:59;100519.25;;;15.96
78859;BMP280;68210;52.032;4.634;2023-04-22T10:42:59;100515.34;;;15.94
78859;BMP280;68210;52.032;4.634;2023-04-22T10:45:03;100498.56;;;15.88
78859;BMP280;68210;52.032;4.634;2023-04-22T10:47:04;100515.75;;;15.85
78859;BMP280;68210;52.032;4.634;2023-04-22T10:49:17;100508.72;;;15.88
78859;BMP280;68210;52.032;4.634;2023-04-22T10:51:39;100507.16;;;15.83
78859;BMP280;68210;52.032;4.634;2023-04-22T10:53:40;100510.28;;;15.82
78859;BMP280;68210;52.032;4.634;2023-04-22T10:55:51;100517.72;;;15.81
78859;BMP280;68210;52.032;4.634;2023-04-22T10:57:52;100510.28;;;15.79
78859;BMP280;68210;52.032;4.634;2023-04-22T10:59:56;100507.56;;;15.79
78859;BMP280;68210;52.032;4.634;2023-04-22T11:02:07;100509.50;;;15.71
78859;BMP280;68210;52.032;4.634;2023-04-22T11:04:21;100496.63;;;15.72
78859;BMP280;68210;52.032;4.634;2023-04-22T11:06:22;100498.56;;;15.61
78859;BMP280;68210;52.032;4.634;2023-04-22T11:08:27;100491.56;;;15.60
78859;BMP280;68210;52.032;4.634;2023-04-22T11:10:41;100492.31;;;15.40
78859;BMP280;68210;52.032;4.634;2023-04-22T11:12:42;100493.50;;;15.52
78859;BMP280;68210;52.032;4.634;2023-04-22T11:14:43;100499.34;;;15.44
78859;BMP280;68210;52.032;4.634;2023-04-22T11:16:46;100510.28;;;15.44
78859;BMP280;68210;52.032;4.634;2023-04-22T11:18:47;100515.31;;;15.35
78859;BMP280;68210;52.032;4.634;2023-04-22T11:20:48;100519.59;;;15.29
78859;BMP280;68210;52.032;4.634;2023-04-22T11:22:56;100529.78;;;15.36
78859;BMP280;68210;52.032;4.634;2023-04-22T11:24:57;100532.88;;;15.31
78859;BMP280;68210;52.032;4.634;2023-04-22T11:26:58;100524.28;;;15.22
78859;BMP280;68210;52.032;4.634;2023-04-22T11:28:58;100536.34;;;15.24
78859;BMP280;68210;52.032;4.634;2023-04-22T11:31:05;100550.00;;;15.14
78859;BMP280;68210;52.032;4.634;2023-04-22T11:33:06;100562.78;;;15.00
78859;BMP280;68210;52.032;4.634;2023-04-22T11:35:08;100565.88;;;14.95
78859;BMP280;68210;52.032;4.634;2023-04-22T11:37:09;100553.00;;;14.92
78859;BMP280;68210;52.032;4.634;2023-04-22T11:39:10;100542.53;;;15.08
78859;BMP280;68210;52.032;4.634;2023-04-22T11:41:19;100545.25;;;15.01